Airfield :
LOGIN :

Register | Disclaimer

   EN    FR    IT 

 










Legend :    VFR   Marginal VFR   IFR   Intensive IFR   Very Intensive IFR
Visi :
Ceiling :
>= 8 km
>= 3000ft
5 to 8 km
1000 to 3000 ft
1500m to 5 km
500 to 1000 ft
800 to 1500m
200 to 500 ft
< 800m
< 200 ft
Symbols :   Thunderstorms  Fog  Heavy snow  Heavy precipitations  Wind > 20 kt
SIGMETs :     Misc.  Thunderstorms  Icing  Turbulence  Mountain Waves  Volcanic Ashes






- Airport Elevation : 231 ft
- IATA code : WTN


EGXW - RAF Waddington

CURRENT METAR :
  • 181920Z 21015KT 9999 SCT009 BKN030 06/04 Q1012 TEMPO 5000 RA BKN005 RMK GRN TEMPO YLO1

EXPIRED METARs :
  • 181850Z 21013KT 9999 FEW011 BKN018 BKN045 06/04 Q1012 RMK WHT
  • 181750Z AUTO 20012KT 9999 // BKN011/// BKN018/// 05/03 Q1013
  • 181650Z 21011KT 9999 BKN023 05/03 Q1015 BECMG BKN012 RMK WHT BECMG GRN

TAF COR TAF EGXW
Valid from the 18 at 18:00 until the 19 at 12:00 UTC


181724Z 1818/1912 20012KT 9999 BKN020
BECMG 1818/1820 -RA BKN008
TEMPO 1819/1905 5000 RA BKN005
PROB30
TEMPO 1821/1905 20015G25KT 3000 +RA BKN003
BECMG 1905/1908 24018G28KT BKN020
TEMPO 1905/1912 6000 RA BKN012



MET'MAP, your aeronautical weather chart ! - Copyright ORBIFLY December 2007 - Disclaimer

ORBIFLY MET'MAP TEAM :

Programming & Development : Alexandra Zaïnal
Concept & original design : Baudouin d'Aumeries
Assistance for programming : Marc-Olivier Méhu
Technical & hardware support : Manuel Goepfert

Contact : metmap@orbifly.com




SOURCES & CREDITS :

   NOAA